Time;durP1;ratioP1;P1;durP2;ratioP2;P2;SDS_P1;SDS_P2;PMS_P1;PMS_P2;Temp;Humidity;BMP_temperature;BMP_pressure;BME280_temperature;BME280_humidity;BME280_pressure;Samples;Min_cycle;Max_cycle;Signal;HPM_P1;HPM_P2
2023/05/07 04:22:33;;;;;;;4.28;2.65;;;;;;;12.59;100.00;100068.56;5095926;28;20379;-67
2023/05/07 04:25:00;;;;;;;6.05;2.80;;;;;;;12.50;100.00;100065.16;5109758;28;20488;-67
2023/05/07 04:27:27;;;;;;;4.05;2.70;;;;;;;12.49;100.00;100068.03;5108169;28;20043;-66
2023/05/07 04:29:55;;;;;;;4.70;3.10;;;;;;;12.56;100.00;100063.59;5109651;28;20036;-67
2023/05/07 04:32:22;;;;;;;;;;;;;;;12.67;100.00;100071.09;5108658;28;20527;-66
2023/05/07 04:34:48;;;;;;;5.47;3.20;;;;;;;12.72;100.00;100058.00;5108711;28;20314;-67
2023/05/07 04:37:14;;;;;;;4.05;2.72;;;;;;;12.67;100.00;100065.75;5109279;28;20043;-67
2023/05/07 04:39:39;;;;;;;4.72;3.00;;;;;;;12.70;100.00;100070.72;5108379;28;20062;-67
2023/05/07 04:42:08;;;;;;;4.15;3.13;;;;;;;12.66;100.00;100069.47;5108045;28;20036;-66
2023/05/07 04:44:36;;;;;;;4.90;2.83;;;;;;;12.67;100.00;100067.59;5108118;28;20039;-66
2023/05/07 04:47:02;;;;;;;4.43;2.90;;;;;;;12.79;100.00;100073.28;5108023;28;20547;-66
2023/05/07 04:49:28;;;;;;;4.80;3.03;;;;;;;12.79;100.00;100068.75;5108030;28;20066;-66
2023/05/07 04:51:54;;;;;;;4.30;2.70;;;;;;;12.88;100.00;100066.75;5108055;28;20099;-67
2023/05/07 04:54:21;;;;;;;7.07;2.55;;;;;;;12.98;100.00;100070.78;5108138;28;20036;-66
2023/05/07 04:56:47;;;;;;;5.53;2.30;;;;;;;13.04;100.00;100071.84;5107668;28;20157;-66
2023/05/07 04:59:13;;;;;;;5.43;2.45;;;;;;;13.06;100.00;100077.00;5108889;28;20057;-66
2023/05/07 05:01:38;;;;;;;5.97;3.20;;;;;;;13.05;100.00;100089.53;5107783;28;20036;-66
2023/05/07 05:04:04;;;;;;;5.20;3.42;;;;;;;13.06;100.00;100085.84;5107887;28;20095;-67
2023/05/07 05:06:30;;;;;;;3.47;2.40;;;;;;;13.10;100.00;100095.13;5107582;28;20058;-67
2023/05/07 05:08:56;;;;;;;4.38;3.28;;;;;;;13.12;100.00;100089.59;5107401;28;20496;-66
2023/05/07 05:11:21;;;;;;;5.45;2.85;;;;;;;13.13;100.00;100097.41;5107677;28;20040;-67
2023/05/07 05:13:49;;;;;;;3.67;2.80;;;;;;;13.19;100.00;100099.31;5107514;28;20476;-66
2023/05/07 05:16:17;;;;;;;3.35;2.65;;;;;;;13.19;100.00;100101.19;5107516;28;20038;-67
2023/05/07 05:18:43;;;;;;;4.63;2.70;;;;;;;13.25;100.00;100095.09;5107184;28;20122;-67
2023/05/07 05:21:10;;;;;;;3.42;2.92;;;;;;;13.30;100.00;100098.84;5107207;28;20047;-67
2023/05/07 05:23:36;;;;;;;7.45;3.10;;;;;;;13.39;100.00;100099.50;5107406;28;20040;-67
2023/05/07 05:26:02;;;;;;;3.42;2.45;;;;;;;13.43;100.00;100098.09;5107373;28;20040;-67
2023/05/07 05:28:30;;;;;;;4.03;2.67;;;;;;;13.49;100.00;100105.31;5106815;28;20039;-66
2023/05/07 05:30:56;;;;;;;3.13;2.35;;;;;;;13.52;100.00;100106.81;5108834;28;20040;-66
2023/05/07 05:33:23;;;;;;;5.13;2.53;;;;;;;13.60;100.00;100108.50;5096654;28;20035;-67
2023/05/07 05:35:49;;;;;;;3.72;2.83;;;;;;;13.64;100.00;100107.91;5093540;28;20100;-67
2023/05/07 05:38:15;;;;;;;3.97;2.30;;;;;;;13.77;100.00;100109.84;5093264;28;20458;-67
2023/05/07 05:40:41;;;;;;;3.00;2.13;;;;;;;13.84;100.00;100121.41;5094736;28;20115;-67
2023/05/07 05:43:06;;;;;;;2.85;2.30;;;;;;;13.91;100.00;100122.28;5088586;28;20118;-67
2023/05/07 05:45:32;;;;;;;3.65;2.30;;;;;;;13.91;100.00;100105.38;5074403;28;20064;-66
2023/05/07 05:47:57;;;;;;;3.25;1.98;;;;;;;13.92;100.00;100115.88;5055779;28;20497;-63
2023/05/07 05:50:23;;;;;;;3.08;2.08;;;;;;;14.04;99.41;100116.97;5073115;28;20032;-63
2023/05/07 05:52:49;;;;;;;4.25;2.38;;;;;;;14.19;99.68;100127.56;5072859;28;20046;-63
2023/05/07 05:55:16;;;;;;;3.60;2.20;;;;;;;14.24;98.86;100121.59;5072967;28;20036;-63
2023/05/07 05:57:41;;;;;;;7.10;4.50;;;;;;;14.30;98.38;100121.63;5073850;28;20090;-64
2023/05/07 06:00:09;;;;;;;3.95;2.63;;;;;;;14.34;98.31;100125.56;5073091;28;20036;-63
2023/05/07 06:02:44;;;;;;;8.00;4.85;;;;;;;14.43;97.32;100122.72;5074101;28;20127;-61
2023/05/07 06:05:10;;;;;;;5.18;3.35;;;;;;;14.42;97.95;100126.41;5072777;28;20040;-63
2023/05/07 06:07:35;;;;;;;5.75;3.42;;;;;;;14.50;98.04;100118.22;5072383;28;20024;-61
2023/05/07 06:10:01;;;;;;;10.02;4.28;;;;;;;14.54;97.98;100112.25;5072739;28;20103;-61
2023/05/07 06:12:29;;;;;;;4.32;2.47;;;;;;;14.64;97.96;100103.81;5069330;28;20086;-61
2023/05/07 06:14:55;;;;;;;4.63;2.53;;;;;;;14.72;98.22;100100.94;5073759;28;20485;-60
2023/05/07 06:17:21;;;;;;;5.18;2.97;;;;;;;14.80;97.56;100090.03;5055673;28;20036;-63
2023/05/07 06:19:46;;;;;;;4.60;2.97;;;;;;;14.88;95.96;100089.03;5072592;28;20044;-63
2023/05/07 06:22:13;;;;;;;4.15;3.05;;;;;;;14.99;94.69;100098.28;5072547;28;20056;-60
2023/05/07 06:24:38;;;;;;;3.63;2.92;;;;;;;15.06;94.79;100104.47;5072421;28;20071;-60
2023/05/07 06:27:05;;;;;;;6.32;2.75;;;;;;;15.17;94.15;100111.91;5072322;28;20047;-64
2023/05/07 06:29:33;;;;;;;4.75;2.85;;;;;;;15.31;94.49;100121.63;5072239;28;20044;-62
2023/05/07 06:32:11;;;;;;;3.08;2.30;;;;;;;15.38;93.58;100119.75;5072372;28;20040;-62
2023/05/07 06:34:39;;;;;;;;;;;;;;;15.46;92.67;100132.16;5072811;28;20052;-62
2023/05/07 06:37:05;;;;;;;4.55;2.38;;;;;;;15.57;92.98;100128.00;5071880;28;19909;-62
2023/05/07 06:39:45;;;;;;;3.17;2.53;;;;;;;15.67;90.82;100121.22;5072271;28;20051;-62
2023/05/07 06:42:11;;;;;;;5.43;3.05;;;;;;;15.79;89.34;100124.09;5072174;28;20029;-62
2023/05/07 06:44:40;;;;;;;4.38;2.97;;;;;;;15.88;89.18;100128.19;5071135;28;20123;-63
2023/05/07 06:47:12;;;;;;;4.25;2.80;;;;;;;15.99;88.10;100107.91;5071775;28;20127;-63
2023/05/07 06:49:39;;;;;;;3.80;2.40;;;;;;;16.09;87.93;100115.50;5071771;28;20044;-62
2023/05/07 06:52:04;;;;;;;5.57;2.22;;;;;;;16.14;87.64;100111.16;5071881;28;20097;-62
2023/05/07 06:54:30;;;;;;;4.65;2.85;;;;;;;16.12;87.12;100109.72;5071776;28;20448;-63
2023/05/07 06:56:55;;;;;;;5.18;2.17;;;;;;;16.18;86.78;100109.69;5072981;28;20040;-63
2023/05/07 06:59:24;;;;;;;2.78;2.10;;;;;;;16.31;86.79;100116.06;5071545;28;20032;-61
2023/05/07 07:01:50;;;;;;;3.70;2.35;;;;;;;16.42;87.07;100118.88;5075553;28;20358;-63
2023/05/07 07:04:15;;;;;;;4.20;1.95;;;;;;;16.55;86.37;100116.13;5073612;28;20093;-63
2023/05/07 07:06:43;;;;;;;2.92;1.98;;;;;;;16.65;85.51;100114.84;5086087;28;20113;-63
2023/05/07 07:09:11;;;;;;;4.82;2.25;;;;;;;16.78;86.98;100121.00;5091138;28;20119;-61
2023/05/07 07:11:37;;;;;;;3.55;2.38;;;;;;;16.92;86.07;100116.34;5086203;28;20131;-61
2023/05/07 07:14:04;;;;;;;1.95;1.70;;;;;;;16.91;81.96;100113.88;5071861;28;20028;-63
2023/05/07 07:16:33;;;;;;;3.40;2.30;;;;;;;17.12;83.59;100120.75;5071355;28;20029;-61
2023/05/07 07:18:58;;;;;;;2.30;1.95;;;;;;;17.28;81.41;100131.81;5072289;28;20048;-63
2023/05/07 07:21:23;;;;;;;4.90;2.13;;;;;;;17.45;81.15;100152.78;5071119;28;20086;-63
2023/05/07 07:23:50;;;;;;;4.45;2.15;;;;;;;17.56;79.92;100160.16;5071571;28;20028;-64
2023/05/07 07:26:17;;;;;;;3.13;2.03;;;;;;;17.57;79.91;100156.41;5054849;28;20036;-62
2023/05/07 07:28:44;;;;;;;2.80;1.95;;;;;;;17.60;82.22;100145.19;5071000;28;20029;-62
2023/05/07 07:31:09;;;;;;;2.28;1.90;;;;;;;17.62;83.26;100135.03;5071069;28;20090;-63
2023/05/07 07:33:35;;;;;;;2.65;2.28;;;;;;;17.70;83.63;100139.31;5071195;28;20040;-59
2023/05/07 07:36:00;;;;;;;2.97;1.92;;;;;;;17.69;83.35;100143.88;5072287;28;20044;-53
2023/05/07 07:38:25;;;;;;;3.15;2.20;;;;;;;17.82;78.84;100165.31;5070731;28;20033;-52
2023/05/07 07:40:51;;;;;;;3.33;1.92;;;;;;;17.79;79.33;100173.00;5070941;28;20025;-59
2023/05/07 07:43:17;;;;;;;2.38;1.98;;;;;;;17.50;81.25;100169.94;5071047;28;20041;-49
2023/05/07 07:45:43;;;;;;;2.72;2.00;;;;;;;17.45;81.27;100164.38;5070879;28;20037;-65
2023/05/07 07:48:09;;;;;;;2.67;2.00;;;;;;;17.32;82.40;100170.69;5070988;28;20464;-64
2023/05/07 07:50:36;;;;;;;3.45;2.08;;;;;;;17.36;82.71;100169.22;5070804;28;20043;-66
2023/05/07 07:53:03;;;;;;;3.10;2.10;;;;;;;17.26;83.56;100166.19;5071025;28;20123;-64
2023/05/07 07:55:28;;;;;;;2.80;1.75;;;;;;;17.33;83.07;100161.56;5053885;28;20136;-65
2023/05/07 07:57:55;;;;;;;3.83;2.05;;;;;;;17.33;83.29;100171.53;5070611;28;20032;-65
2023/05/07 08:00:22;;;;;;;5.45;2.00;;;;;;;17.31;82.45;100174.44;5070579;28;20044;-65
2023/05/07 08:02:51;;;;;;;3.40;1.80;;;;;;;17.33;82.62;100184.97;5071071;28;20076;-65
2023/05/07 08:05:23;;;;;;;2.90;2.00;;;;;;;17.34;79.43;100181.25;5070655;28;20055;-65
2023/05/07 08:07:51;;;;;;;2.55;2.13;;;;;;;17.47;82.04;100180.31;5070325;28;20031;-65
2023/05/07 08:10:22;;;;;;;3.00;2.10;;;;;;;17.17;80.73;100174.75;5070271;28;20107;-65
2023/05/07 08:12:52;;;;;;;2.45;1.83;;;;;;;17.47;80.34;100172.22;5070696;28;20064;-65
2023/05/07 08:15:18;;;;;;;2.10;1.90;;;;;;;17.59;78.71;100174.00;5070730;28;20087;-65
2023/05/07 08:17:44;;;;;;;4.25;1.75;;;;;;;17.76;79.74;100176.16;5070280;28;20106;-65
2023/05/07 08:20:10;;;;;;;4.35;2.33;;;;;;;17.89;78.35;100182.25;5053853;28;20404;-64
2023/05/07 08:22:36;;;;;;;3.78;2.42;;;;;;;17.92;77.48;100174.75;5070667;28;20044;-63
2023/05/07 08:25:02;;;;;;;3.25;2.38;;;;;;;18.02;77.81;100181.28;5071916;28;20032;-64
2023/05/07 08:27:28;;;;;;;3.40;2.38;;;;;;;18.08;77.48;100175.00;5070091;28;20448;-64
2023/05/07 08:29:54;;;;;;;4.68;1.98;;;;;;;18.21;79.34;100178.59;5072059;28;20033;-65
2023/05/07 08:32:21;;;;;;;3.63;1.95;;;;;;;18.24;78.94;100178.13;5070407;28;20037;-65
2023/05/07 08:34:47;;;;;;;3.20;2.40;;;;;;;18.24;77.71;100175.44;5071729;28;20058;-65
2023/05/07 08:37:13;;;;;;;5.32;2.10;;;;;;;18.28;78.69;100174.78;5070141;28;20405;-65
2023/05/07 08:39:39;;;;;;;2.50;2.15;;;;;;;18.37;80.42;100175.28;5070419;28;20460;-66
2023/05/07 08:42:15;;;;;;;6.57;2.53;;;;;;;18.43;78.08;100177.91;5070109;28;20486;-65
2023/05/07 08:44:45;;;;;;;4.40;2.35;;;;;;;18.59;79.21;100186.44;5070379;28;20090;-65
2023/05/07 08:47:12;;;;;;;2.55;2.20;;;;;;;18.78;77.46;100176.44;5070012;28;20064;-64
2023/05/07 08:49:38;;;;;;;5.55;2.30;;;;;;;18.93;77.76;100176.88;5070197;28;20523;-64
2023/05/07 08:52:05;;;;;;;3.85;2.35;;;;;;;19.15;76.71;100182.56;5070103;28;20044;-65
2023/05/07 08:54:31;;;;;;;4.88;2.70;;;;;;;19.26;75.34;100176.38;5070209;28;20051;-64
2023/05/07 08:56:57;;;;;;;5.15;2.08;;;;;;;19.44;74.94;100178.19;5069939;28;20451;-66
2023/05/07 08:59:23;;;;;;;2.92;2.00;;;;;;;19.57;75.42;100172.56;5070212;28;20127;-65
2023/05/07 09:01:49;;;;;;;3.45;1.95;;;;;;;19.62;73.62;100174.56;5071379;28;20131;-64
2023/05/07 09:04:15;;;;;;;3.60;2.70;;;;;;;19.82;71.72;100174.22;5070100;28;20042;-66
2023/05/07 09:06:42;;;;;;;4.88;2.15;;;;;;;20.09;73.87;100169.97;5070021;28;20500;-65
2023/05/07 09:09:13;;;;;;;2.80;2.05;;;;;;;20.28;74.90;100174.19;5073341;28;20068;-65
2023/05/07 09:11:39;;;;;;;2.70;1.98;;;;;;;20.43;73.01;100176.38;5073673;28;20029;-65
2023/05/07 09:14:04;;;;;;;2.65;2.03;;;;;;;20.59;71.30;100177.53;5073835;28;20363;-65
2023/05/07 09:16:35;;;;;;;3.00;2.05;;;;;;;20.77;69.72;100171.09;5073892;28;20401;-67
2023/05/07 09:19:02;;;;;;;2.37;1.77;;;;;;;20.97;67.80;100165.25;5073644;28;20040;-67
2023/05/07 09:21:27;;;;;;;2.50;2.10;;;;;;;21.18;68.83;100164.53;5073934;28;20082;-67
2023/05/07 09:23:56;;;;;;;2.47;1.70;;;;;;;21.51;66.53;100165.63;5057180;28;20497;-67
2023/05/07 09:26:28;;;;;;;2.55;1.85;;;;;;;21.64;63.41;100155.28;5075132;28;20051;-67
2023/05/07 09:28:53;;;;;;;2.17;1.90;;;;;;;21.80;66.08;100161.75;5073268;28;20098;-67
2023/05/07 09:31:20;;;;;;;2.38;1.77;;;;;;;21.93;61.88;100155.97;5075159;28;20044;-67
2023/05/07 09:33:46;;;;;;;2.25;1.73;;;;;;;22.27;61.59;100160.53;5073789;28;20056;-67
2023/05/07 09:36:12;;;;;;;2.28;1.75;;;;;;;22.22;60.11;100161.25;5057326;28;20060;-67
2023/05/07 09:38:40;;;;;;;;;;;;;;;22.56;60.68;100155.69;5073827;28;20048;-68
2023/05/07 09:41:10;;;;;;;2.65;2.05;;;;;;;22.69;61.08;100161.56;5074678;28;19916;-68
2023/05/07 09:43:56;;;;;;;3.45;2.00;;;;;;;22.74;60.67;100163.50;5073595;28;20044;-67
2023/05/07 09:46:31;;;;;;;2.83;2.00;;;;;;;22.95;62.05;100157.25;5073919;28;20509;-67
2023/05/07 09:49:01;;;;;;;2.70;2.17;;;;;;;22.83;55.47;100161.16;5073789;28;20558;-67
2023/05/07 09:51:41;;;;;;;3.00;2.40;;;;;;;22.98;56.37;100153.19;5073684;28;20036;-68
2023/05/07 09:54:07;;;;;;;2.53;1.85;;;;;;;23.11;57.92;100155.50;5073277;28;20051;-66
2023/05/07 09:56:37;;;;;;;2.20;1.98;;;;;;;23.50;55.34;100160.72;5073002;28;20117;-66
2023/05/07 09:59:06;;;;;;;2.10;1.90;;;;;;;23.50;53.29;100158.81;5072414;28;20036;-66
2023/05/07 10:01:33;;;;;;;1.95;1.73;;;;;;;23.88;54.36;100153.38;5073053;28;20058;-66
2023/05/07 10:04:03;;;;;;;2.40;1.85;;;;;;;24.49;51.60;100146.34;5073186;28;20455;-66
2023/05/07 10:06:30;;;;;;;4.50;3.30;;;;;;;24.60;52.02;100139.84;5072970;28;20064;-62
2023/05/07 10:08:56;;;;;;;3.83;1.80;;;;;;;25.31;49.86;100141.88;5072565;28;20102;-67
2023/05/07 10:11:23;;;;;;;2.60;1.70;;;;;;;25.19;49.98;100135.03;5072877;28;20489;-67
2023/05/07 10:13:48;;;;;;;1.85;1.50;;;;;;;25.73;48.19;100139.94;5073674;28;20059;-67
2023/05/07 10:16:15;;;;;;;1.98;1.50;;;;;;;26.16;46.78;100131.06;5074064;28;20043;-66
2023/05/07 10:18:46;;;;;;;3.75;1.75;;;;;;;26.16;46.35;100133.81;5072126;28;20106;-67
2023/05/07 10:21:18;;;;;;;2.13;1.80;;;;;;;25.98;46.68;100139.88;5073916;28;20397;-66
2023/05/07 10:23:50;;;;;;;2.08;1.70;;;;;;;26.19;48.56;100143.34;5072504;28;20036;-67
2023/05/07 10:26:20;;;;;;;2.55;1.50;;;;;;;26.37;45.74;100137.25;5072503;28;20040;-66
2023/05/07 10:28:50;;;;;;;2.17;1.80;;;;;;;26.61;45.10;100136.63;5072008;28;20025;-66
2023/05/07 10:31:28;;;;;;;1.85;1.52;;;;;;;26.82;45.62;100132.66;5072334;28;20036;-65
2023/05/07 10:33:56;;;;;;;2.45;1.38;;;;;;;26.89;44.14;100135.06;5073511;28;20038;-65
2023/05/07 10:36:24;;;;;;;1.80;1.50;;;;;;;27.39;42.74;100130.34;5072383;28;20032;-67
2023/05/07 10:38:51;;;;;;;1.48;1.38;;;;;;;27.64;43.73;100134.72;5071940;28;20044;-66
2023/05/07 10:41:18;;;;;;;2.00;1.50;;;;;;;27.66;42.46;100136.09;5072184;28;20036;-66
2023/05/07 10:43:45;;;;;;;1.40;1.17;;;;;;;27.79;40.29;100140.09;5072407;28;20035;-66
2023/05/07 10:46:22;;;;;;;1.95;1.30;;;;;;;28.10;41.07;100126.84;5072207;28;20402;-64
2023/05/07 10:49:06;;;;;;;2.42;1.50;;;;;;;28.16;39.29;100128.44;5071763;28;20036;-64
2023/05/07 10:51:47;;;;;;;1.42;1.20;;;;;;;28.35;39.48;100126.56;5071944;28;20045;-66
2023/05/07 10:54:24;;;;;;;1.27;1.10;;;;;;;28.47;39.89;100128.06;5071852;28;20611;-64
2023/05/07 10:57:36;;;;;;;1.77;1.50;;;;;;;28.61;38.74;100118.00;5071587;28;20045;-65
2023/05/07 11:00:24;;;;;;;2.45;1.38;;;;;;;28.71;38.46;100117.06;5062717;28;20049;-64
2023/05/07 11:03:00;;;;;;;1.55;1.33;;;;;;;29.11;36.86;100115.63;5071667;28;20032;-65
2023/05/07 11:05:31;;;;;;;1.17;1.00;;;;;;;29.88;37.36;100113.16;5071524;28;20397;-64
2023/05/07 11:08:10;;;;;;;2.78;1.30;;;;;;;29.91;35.34;100112.53;5071359;28;20125;-66
2023/05/07 11:10:56;;;;;;;2.30;1.13;;;;;;;29.35;39.86;100110.00;5071766;28;20028;-66
2023/05/07 11:13:41;;;;;;;1.58;1.25;;;;;;;29.62;37.85;100103.78;5051622;28;20072;-66
2023/05/07 11:16:24;;;;;;;1.95;1.10;;;;;;;30.03;36.57;100102.97;5051414;28;20157;-65
2023/05/07 11:18:58;;;;;;;3.92;1.45;;;;;;;30.10;37.08;100097.91;5051215;28;20033;-58
2023/05/07 11:21:38;;;;;;;1.40;1.15;;;;;;;30.09;37.15;100091.59;5051332;28;20109;-56
2023/05/07 11:24:23;;;;;;;1.70;1.20;;;;;;;30.21;37.23;100096.59;5051428;28;20029;-58
2023/05/07 11:26:54;;;;;;;1.52;1.42;;;;;;;30.44;37.88;100095.50;5051292;28;20036;-67
2023/05/07 11:29:22;;;;;;;1.70;1.45;;;;;;;30.43;35.85;100099.38;5051293;28;20498;-66
2023/05/07 11:31:52;;;;;;;1.75;1.08;;;;;;;31.04;35.79;100106.25;5050693;28;20049;-67
2023/05/07 11:34:26;;;;;;;1.15;1.05;;;;;;;30.38;35.96;100099.50;5052161;28;20029;-66
2023/05/07 11:36:55;;;;;;;1.80;1.30;;;;;;;29.42;38.90;100102.22;5054403;28;20033;-66
2023/05/07 11:39:32;;;;;;;1.60;1.40;;;;;;;29.36;37.37;100096.00;5062209;28;20040;-65
2023/05/07 11:42:00;;;;;;;1.80;1.30;;;;;;;29.74;38.30;100095.88;5052585;28;20104;-65
2023/05/07 11:44:41;;;;;;;1.40;1.30;;;;;;;29.44;38.30;100098.03;5056827;28;20039;-65
2023/05/07 11:47:06;;;;;;;1.40;1.30;;;;;;;29.13;37.92;100105.16;5056689;28;20549;-66
2023/05/07 11:49:31;;;;;;;3.13;1.17;;;;;;;29.89;39.26;100105.72;5053324;28;20068;-64
2023/05/07 11:51:57;;;;;;;2.33;1.23;;;;;;;29.25;40.17;100100.03;5054788;28;20063;-66
2023/05/07 11:54:22;;;;;;;1.88;1.13;;;;;;;29.20;39.19;100092.69;5052318;28;20040;-65
2023/05/07 11:56:48;;;;;;;1.38;1.27;;;;;;;29.02;38.95;100096.31;5051972;28;20079;-64
2023/05/07 11:59:17;;;;;;;1.30;1.13;;;;;;;29.10;38.59;100084.66;5052232;28;20033;-64
2023/05/07 12:01:45;;;;;;;1.65;1.30;;;;;;;28.95;38.98;100101.34;5050829;28;20283;-65
2023/05/07 12:04:11;;;;;;;1.27;1.17;;;;;;;28.97;39.45;100099.13;5051853;28;20121;-66
2023/05/07 12:06:37;;;;;;;1.40;1.30;;;;;;;29.01;40.15;100097.41;5051904;28;20558;-64
2023/05/07 12:09:03;;;;;;;1.38;1.27;;;;;;;28.36;42.23;100078.94;5051876;28;20090;-64
2023/05/07 12:11:29;;;;;;;2.58;1.30;;;;;;;27.84;44.33;100093.50;5050663;28;20490;-66
2023/05/07 12:13:55;;;;;;;1.45;1.10;;;;;;;27.90;42.22;100086.03;5051874;28;20093;-65
2023/05/07 12:16:21;;;;;;;1.40;1.30;;;;;;;28.46;43.01;100085.34;5051887;28;20463;-65
2023/05/07 12:18:47;;;;;;;1.65;1.20;;;;;;;28.44;43.09;100077.44;5060848;28;20111;-65
2023/05/07 12:21:13;;;;;;;1.83;1.63;;;;;;;28.73;40.27;100077.28;5072868;28;20052;-63
2023/05/07 12:23:39;;;;;;;1.40;1.30;;;;;;;28.83;41.13;100087.28;5055830;28;20025;-64
2023/05/07 12:26:05;;;;;;;1.40;1.30;;;;;;;28.09;43.81;100084.97;5055666;28;20067;-58
2023/05/07 12:28:35;;;;;;;1.88;1.50;;;;;;;28.02;41.18;100083.72;5058984;28;20075;-62
2023/05/07 12:31:01;;;;;;;2.22;1.40;;;;;;;28.04;42.15;100081.50;5061443;28;20032;-62
2023/05/07 12:33:28;;;;;;;2.08;1.30;;;;;;;28.07;42.91;100076.25;5060384;28;20024;-62
2023/05/07 12:35:56;;;;;;;1.27;1.17;;;;;;;28.01;42.63;100080.16;5060278;28;20500;-63
2023/05/07 12:38:22;;;;;;;1.50;1.40;;;;;;;27.88;43.29;100077.31;5061025;28;20589;-64
2023/05/07 12:40:50;;;;;;;1.80;1.33;;;;;;;27.76;43.86;100077.72;5061303;28;20099;-63
2023/05/07 12:43:34;;;;;;;1.80;1.30;;;;;;;27.95;43.08;100075.03;5067926;28;20063;-64
2023/05/07 12:46:03;;;;;;;2.85;1.40;;;;;;;27.66;42.89;100081.38;5074330;28;20044;-65
2023/05/07 12:48:29;;;;;;;2.72;1.60;;;;;;;27.45;43.22;100088.13;5075145;28;20044;-66
2023/05/07 12:50:59;;;;;;;1.60;1.33;;;;;;;27.49;42.64;100098.22;5075908;28;20037;-66
2023/05/07 12:53:26;;;;;;;1.35;1.20;;;;;;;27.10;43.18;100100.22;5076517;28;20485;-65
2023/05/07 12:55:56;;;;;;;1.73;1.33;;;;;;;26.76;43.31;100090.09;5075456;28;20028;-65
2023/05/07 12:58:26;;;;;;;2.15;1.42;;;;;;;26.43;42.97;100094.41;5075108;28;20041;-65
2023/05/07 13:00:52;;;;;;;1.73;1.35;;;;;;;25.81;44.23;100096.53;5075460;28;20032;-66
2023/05/07 13:03:29;;;;;;;2.60;1.40;;;;;;;26.08;46.29;100092.59;5075534;28;20024;-65
2023/05/07 13:06:02;;;;;;;1.50;1.40;;;;;;;26.19;47.80;100089.56;5075289;28;20082;-64
2023/05/07 13:08:34;;;;;;;2.00;1.45;;;;;;;26.31;47.05;100091.16;5074938;28;20037;-64
2023/05/07 13:11:04;;;;;;;2.53;1.67;;;;;;;26.47;44.23;100096.28;5075133;28;20177;-66
2023/05/07 13:13:41;;;;;;;1.70;1.60;;;;;;;26.51;44.92;100088.34;5075148;28;20082;-66
2023/05/07 13:16:08;;;;;;;1.75;1.50;;;;;;;26.77;45.58;100091.72;5075114;28;20142;-65
2023/05/07 13:18:34;;;;;;;1.23;1.13;;;;;;;26.61;43.00;100095.66;5074863;28;20029;-66
2023/05/07 13:21:00;;;;;;;1.45;1.23;;;;;;;26.94;42.80;100085.84;5064856;28;20683;-66
2023/05/07 13:23:27;;;;;;;1.57;1.30;;;;;;;26.88;42.22;100078.81;5055004;28;20399;-63
2023/05/07 13:25:53;;;;;;;2.20;1.70;;;;;;;27.01;43.15;100083.63;5054992;28;20442;-63
2023/05/07 13:28:20;;;;;;;1.65;1.50;;;;;;;26.90;42.02;100084.78;5054573;28;20119;-64
2023/05/07 13:30:46;;;;;;;1.63;1.53;;;;;;;26.65;43.38;100083.06;5054763;28;20072;-65
2023/05/07 13:33:11;;;;;;;1.80;1.50;;;;;;;26.44;43.66;100090.56;5053571;28;20032;-66
2023/05/07 13:35:37;;;;;;;2.85;1.67;;;;;;;26.08;43.48;100092.59;5054654;28;20390;-63
2023/05/07 13:38:05;;;;;;;2.00;1.38;;;;;;;26.35;46.26;100103.16;5054621;28;20039;-64
2023/05/07 13:40:31;;;;;;;2.72;1.50;;;;;;;26.31;45.19;100104.81;5054696;28;20041;-65
2023/05/07 13:42:58;;;;;;;2.53;1.58;;;;;;;25.97;43.95;100100.03;5054632;28;20036;-65
2023/05/07 13:45:25;;;;;;;2.00;1.60;;;;;;;25.94;45.04;100095.13;5054616;28;20029;-67
2023/05/07 13:47:51;;;;;;;2.53;1.33;;;;;;;25.66;46.13;100099.28;5054331;28;20033;-64
2023/05/07 13:50:17;;;;;;;2.17;1.63;;;;;;;25.41;45.78;100102.84;5054535;28;20728;-65
2023/05/07 13:52:50;;;;;;;2.63;1.80;;;;;;;25.01;47.35;100099.03;5054519;28;20037;-65
2023/05/07 13:55:19;;;;;;;2.03;1.67;;;;;;;24.89;46.34;100099.28;5052938;28;20036;-64
2023/05/07 13:57:46;;;;;;;1.88;1.40;;;;;;;24.74;46.56;100099.28;5054092;28;20048;-65
2023/05/07 14:00:12;;;;;;;1.85;1.55;;;;;;;24.58;48.25;100098.47;5054314;28;20115;-63
2023/05/07 14:02:40;;;;;;;3.28;1.80;;;;;;;24.51;49.85;100116.94;5054218;28;20397;-64
2023/05/07 14:05:06;;;;;;;3.38;2.10;;;;;;;24.03;51.26;100112.66;5054210;28;20041;-65
2023/05/07 14:07:32;;;;;;;3.10;2.40;;;;;;;24.12;52.23;100115.66;5054075;28;20107;-65
2023/05/07 14:09:57;;;;;;;2.63;2.25;;;;;;;23.79;53.75;100117.69;5054383;28;20064;-65
2023/05/07 14:12:23;;;;;;;3.30;2.17;;;;;;;23.79;54.22;100120.41;5053922;28;20029;-66
2023/05/07 14:14:49;;;;;;;2.42;1.80;;;;;;;23.71;52.73;100124.44;5054039;28;20029;-66
2023/05/07 14:17:16;;;;;;;2.03;1.87;;;;;;;23.62;51.85;100119.78;5053721;28;20575;-66
2023/05/07 14:19:42;;;;;;;2.42;1.48;;;;;;;23.67;52.05;100119.78;5053904;28;20124;-65
2023/05/07 14:22:07;;;;;;;3.25;1.40;;;;;;;23.63;52.09;100115.97;5053871;28;20025;-66
2023/05/07 14:24:33;;;;;;;1.90;0.90;;;;;;;23.34;45.74;100134.47;5053831;28;20474;-65
2023/05/07 14:26:58;;;;;;;0.73;0.70;;;;;;;23.15;44.75;100125.94;5053533;28;20090;-64
2023/05/07 14:29:24;;;;;;;1.08;0.80;;;;;;;22.59;43.62;100128.06;5053769;28;20482;-66
2023/05/07 14:31:49;;;;;;;0.60;0.50;;;;;;;22.64;44.12;100130.84;5053781;28;20067;-63
2023/05/07 14:34:14;;;;;;;0.47;0.45;;;;;;;22.55;44.03;100125.03;5053571;28;20140;-64
2023/05/07 14:36:40;;;;;;;0.63;0.52;;;;;;;22.74;44.07;100123.59;5035836;28;20041;-65
2023/05/07 14:39:05;;;;;;;0.93;0.85;;;;;;;22.76;44.57;100128.78;5053322;28;20490;-65
2023/05/07 14:41:32;;;;;;;1.00;0.77;;;;;;;22.68;45.49;100118.38;5053539;28;20120;-63
2023/05/07 14:43:58;;;;;;;0.60;0.60;;;;;;;22.48;45.48;100127.94;5053705;28;20044;-65
2023/05/07 14:46:24;;;;;;;0.70;0.65;;;;;;;22.46;45.35;100135.53;5053444;28;20037;-63
2023/05/07 14:48:50;;;;;;;2.03;1.00;;;;;;;22.56;46.42;100128.56;5053135;28;20421;-62
2023/05/07 14:51:15;;;;;;;1.10;0.60;;;;;;;22.54;46.76;100125.28;5053190;28;20035;-62
2023/05/07 14:53:41;;;;;;;0.50;0.40;;;;;;;22.67;47.44;100135.75;5052086;28;20136;-62
2023/05/07 14:56:07;;;;;;;1.92;0.85;;;;;;;22.43;47.50;100130.63;5053076;28;20037;-62
2023/05/07 14:58:33;;;;;;;7.32;1.05;;;;;;;22.53;48.16;100135.31;5052965;28;20037;-62
2023/05/07 15:00:59;;;;;;;0.70;0.70;;;;;;;22.71;48.45;100128.75;5053145;28;20116;-61
2023/05/07 15:03:25;;;;;;;1.33;1.10;;;;;;;22.69;48.87;100137.16;5053134;28;20045;-61
2023/05/07 15:05:51;;;;;;;1.17;1.08;;;;;;;22.44;50.29;100134.97;5052252;28;20686;-61
2023/05/07 15:08:17;;;;;;;1.20;0.90;;;;;;;22.69;50.19;100144.44;5052705;28;20406;-61
2023/05/07 15:10:42;;;;;;;1.95;1.10;;;;;;;22.78;49.16;100153.78;5053074;28;20383;-62
2023/05/07 15:13:09;;;;;;;2.45;0.80;;;;;;;22.80;49.09;100151.63;5053045;28;20032;-62
2023/05/07 15:15:34;;;;;;;0.80;0.80;;;;;;;22.92;49.22;100152.31;5052908;28;20406;-63
2023/05/07 15:18:01;;;;;;;0.60;0.60;;;;;;;22.79;48.79;100155.41;5051221;28;20037;-61
2023/05/07 15:20:26;;;;;;;1.75;1.20;;;;;;;22.59;48.79;100157.91;5052792;28;20421;-62
2023/05/07 15:22:52;;;;;;;1.33;0.75;;;;;;;22.65;48.63;100159.63;5052804;28;20040;-62
2023/05/07 15:25:17;;;;;;;0.80;0.70;;;;;;;22.68;50.23;100162.63;5051492;28;20502;-62
2023/05/07 15:27:44;;;;;;;0.80;0.70;;;;;;;22.69;50.65;100160.72;5052548;28;20040;-61
2023/05/07 15:30:10;;;;;;;1.75;1.05;;;;;;;22.56;50.87;100167.41;5052760;28;20413;-62
2023/05/07 15:32:37;;;;;;;3.03;1.00;;;;;;;22.60;50.52;100162.28;5052553;28;20446;-61
2023/05/07 15:35:04;;;;;;;1.33;1.05;;;;;;;22.46;51.03;100168.09;5052923;28;20625;-61
2023/05/07 15:37:33;;;;;;;1.23;0.85;;;;;;;22.35;51.53;100163.59;5052291;28;20040;-62
2023/05/07 15:39:58;;;;;;;1.55;0.88;;;;;;;22.38;51.88;100165.81;5052639;28;20504;-60
2023/05/07 15:42:24;;;;;;;1.10;1.00;;;;;;;22.30;52.72;100158.13;5052464;28;20119;-50
2023/05/07 15:44:49;;;;;;;0.80;0.75;;;;;;;22.31;53.59;100154.34;5052380;28;20087;-48
2023/05/07 15:47:15;;;;;;;0.85;0.85;;;;;;;22.00;53.65;100158.50;5052070;28;20509;-51
2023/05/07 15:49:41;;;;;;;1.60;0.80;;;;;;;21.86;53.34;100158.06;5052291;28;20033;-53